Myton, Utah
Current Conditions -  °F | °C
As of 9:53 PM on Saturday 25 Oct 2014 (Local Time) from KVEL Reporting Station
Clear Clear  
Wind Chill: 47°   Ceiling: Unl
Heat Index: 49°   Visibility: 10mi
Dew Point: 35°   Wind: 6mph
Humidity: 59%   Direction: 280°W
Pressure: 30.02"   Gusts: NA
Location:  40.19°N, 110.06°W
Report Text: KVEL 260353Z AUTO 28005KT 10SM CLR 09/02 A3002 RMK AO2 SLP141 T00940017
Loading
Personal Weather Stations






























Interactive Weather Map
Tropical Storm Tracking
New forecast layout! Learn more

10-Day Weather Forecast

Advertisements
Track Severe Weather on mobile